Time;durP1;ratioP1;P1;durP2;ratioP2;P2;SDS_P1;SDS_P2;PMS_P1;PMS_P2;Temp;Humidity;BMP_temperature;BMP_pressure;BME280_temperature;BME280_humidity;BME280_pressure;Samples;Min_cycle;Max_cycle;Signal;HPM_P1;HPM_P2
2021/10/15 00:00:43;;;;;;;11.23;6.40;;;11.20;97.30;;;;;;5055949;28;20648;-84
2021/10/15 00:03:08;;;;;;;12.27;6.07;;;11.20;97.30;;;;;;5054337;28;20658;-84
2021/10/15 00:05:34;;;;;;;10.17;5.73;;;11.20;97.30;;;;;;5054963;28;20245;-84
2021/10/15 00:08:00;;;;;;;12.63;7.17;;;11.10;97.30;;;;;;5054658;28;20183;-84
2021/10/15 00:10:25;;;;;;;9.10;4.70;;;11.10;97.30;;;;;;5054572;28;20168;-84
2021/10/15 00:12:51;;;;;;;11.57;5.43;;;11.00;97.30;;;;;;5054432;28;20176;-84
2021/10/15 00:15:17;;;;;;;11.27;5.20;;;11.00;97.30;;;;;;5055267;28;20203;-83
2021/10/15 00:17:43;;;;;;;9.70;5.17;;;10.90;97.30;;;;;;5054754;28;20172;-84
2021/10/15 00:20:12;;;;;;;12.87;6.27;;;10.80;97.30;;;;;;5055182;28;20480;-84
2021/10/15 00:22:39;;;;;;;12.33;5.47;;;10.80;97.30;;;;;;5054871;28;20222;-84
2021/10/15 00:25:05;;;;;;;10.73;5.63;;;10.70;97.30;;;;;;5054958;28;20457;-84
2021/10/15 00:27:30;;;;;;;10.27;5.43;;;10.60;97.30;;;;;;5053556;28;20422;-84
2021/10/15 00:29:56;;;;;;;11.40;6.03;;;10.50;97.30;;;;;;5054211;28;20418;-84
2021/10/15 00:32:22;;;;;;;9.83;5.40;;;10.40;97.30;;;;;;5053874;28;20186;-84
2021/10/15 00:34:48;;;;;;;10.53;5.17;;;10.40;97.30;;;;;;5055081;28;20203;-83
2021/10/15 00:37:17;;;;;;;9.30;5.17;;;10.30;97.30;;;;;;5054016;28;20417;-84
2021/10/15 00:39:43;;;;;;;10.93;6.50;;;10.30;97.30;;;;;;5053452;28;20203;-84
2021/10/15 00:42:08;;;;;;;10.73;6.13;;;10.30;97.30;;;;;;5053389;28;20469;-84
2021/10/15 00:44:37;;;;;;;12.30;5.80;;;10.30;97.30;;;;;;5070812;28;20198;-84
2021/10/15 00:47:03;;;;;;;12.03;6.17;;;10.30;97.30;;;;;;5066379;28;20163;-85
2021/10/15 00:49:29;;;;;;;11.90;5.67;;;10.30;97.30;;;;;;5075005;28;20432;-83
2021/10/15 00:51:54;;;;;;;10.07;5.80;;;10.30;97.30;;;;;;5072646;28;20244;-84
2021/10/15 00:54:20;;;;;;;10.73;5.83;;;10.30;97.30;;;;;;5058535;28;20195;-85
2021/10/15 00:56:45;;;;;;;12.57;5.50;;;10.30;97.30;;;;;;5070802;28;20181;-84
2021/10/15 00:59:12;;;;;;;12.70;5.00;;;10.30;97.30;;;;;;5056070;28;20246;-85
2021/10/15 01:01:38;;;;;;;12.13;5.47;;;10.20;97.30;;;;;;5072794;28;20244;-85
2021/10/15 01:04:04;;;;;;;10.43;5.30;;;10.30;97.30;;;;;;5062437;28;20461;-85
2021/10/15 01:06:31;;;;;;;14.80;5.60;;;10.20;97.30;;;;;;5058022;28;20172;-84
2021/10/15 01:08:58;;;;;;;9.53;4.93;;;10.30;97.30;;;;;;5076993;28;20416;-84
2021/10/15 01:11:24;;;;;;;11.10;4.97;;;10.30;97.30;;;;;;5076141;28;20429;-84
2021/10/15 01:13:50;;;;;;;9.07;5.20;;;10.20;97.30;;;;;;5057616;28;20446;-84
2021/10/15 01:16:16;;;;;;;8.93;4.70;;;10.30;97.30;;;;;;5065067;28;20790;-84
2021/10/15 01:18:44;;;;;;;10.10;5.00;;;10.30;97.30;;;;;;5071345;28;20175;-84
2021/10/15 01:21:11;;;;;;;9.43;4.87;;;10.30;97.30;;;;;;5075768;28;20544;-84
2021/10/15 01:23:37;;;;;;;11.93;4.93;;;10.30;97.30;;;;;;5075107;28;20417;-85
2021/10/15 01:26:04;;;;;;;7.00;3.77;;;10.30;97.30;;;;;;5075201;28;20508;-83
2021/10/15 01:28:31;;;;;;;9.57;4.50;;;10.30;97.30;;;;;;5075848;28;20405;-85
2021/10/15 01:30:57;;;;;;;8.50;5.00;;;10.30;97.30;;;;;;5075374;28;20838;-85
2021/10/15 01:33:23;;;;;;;13.23;4.90;;;10.30;97.30;;;;;;5075247;28;20414;-84
2021/10/15 01:35:49;;;;;;;10.70;4.60;;;10.40;97.30;;;;;;5074663;28;20619;-85
2021/10/15 01:38:15;;;;;;;7.03;4.47;;;10.40;97.30;;;;;;5075345;28;20420;-84
2021/10/15 01:40:41;;;;;;;6.57;3.80;;;10.40;97.30;;;;;;5074729;28;20270;-84
2021/10/15 01:43:07;;;;;;;10.87;4.63;;;10.50;97.30;;;;;;5074342;28;20454;-84
2021/10/15 01:45:33;;;;;;;10.20;5.37;;;10.60;97.30;;;;;;5074162;28;20433;-85
2021/10/15 01:48:00;;;;;;;14.43;4.80;;;10.60;97.30;;;;;;5073429;28;20549;-84
2021/10/15 01:50:26;;;;;;;9.90;4.40;;;10.70;97.30;;;;;;5053797;28;20426;-84
2021/10/15 01:52:53;;;;;;;8.60;3.93;;;10.70;97.30;;;;;;5054422;28;20481;-84
2021/10/15 01:55:20;;;;;;;8.10;4.97;;;10.70;97.30;;;;;;5055608;28;20470;-84
2021/10/15 01:57:46;;;;;;;7.43;4.43;;;10.80;97.30;;;;;;5054989;28;20476;-85
2021/10/15 02:00:13;;;;;;;10.53;4.83;;;10.80;97.30;;;;;;5052920;28;20426;-85
2021/10/15 02:02:40;;;;;;;11.40;6.17;;;10.90;97.30;;;;;;5052859;28;20493;-85
2021/10/15 02:05:08;;;;;;;7.00;4.27;;;11.00;97.30;;;;;;5067007;28;20441;-85
2021/10/15 02:07:34;;;;;;;8.47;4.67;;;11.00;97.30;;;;;;5070784;28;20991;-84
2021/10/15 02:10:00;;;;;;;7.30;4.63;;;11.00;97.30;;;;;;5053199;28;20486;-85
2021/10/15 02:12:25;;;;;;;11.87;5.03;;;11.10;97.30;;;;;;5052899;28;20176;-85
2021/10/15 02:14:51;;;;;;;7.47;4.43;;;11.10;97.30;;;;;;5052873;28;20195;-84
2021/10/15 02:17:17;;;;;;;7.80;4.47;;;11.20;97.30;;;;;;5053158;28;20191;-84
2021/10/15 02:19:43;;;;;;;7.30;3.90;;;11.20;97.30;;;;;;5052001;28;20192;-84
2021/10/15 02:22:09;;;;;;;6.80;3.90;;;11.20;97.30;;;;;;5053160;28;20208;-85
2021/10/15 02:24:35;;;;;;;7.17;4.43;;;11.20;97.30;;;;;;5052722;28;20454;-85
2021/10/15 02:27:00;;;;;;;9.10;4.67;;;11.30;97.30;;;;;;5053078;28;20445;-85
2021/10/15 02:29:26;;;;;;;8.03;5.27;;;11.30;97.30;;;;;;5052794;28;20179;-85
2021/10/15 02:31:51;;;;;;;10.77;4.70;;;11.30;97.30;;;;;;5053824;28;20198;-84
2021/10/15 02:34:18;;;;;;;11.33;4.50;;;11.30;97.30;;;;;;5054116;28;20748;-84
2021/10/15 02:36:44;;;;;;;8.63;4.93;;;11.30;97.30;;;;;;5053834;28;20625;-84
2021/10/15 02:39:10;;;;;;;8.97;4.53;;;11.40;97.30;;;;;;5054043;28;20411;-84
2021/10/15 02:41:39;;;;;;;8.23;4.33;;;11.40;97.30;;;;;;5054713;28;20503;-84
2021/10/15 02:44:10;;;;;;;7.03;4.30;;;11.40;97.30;;;;;;5053832;28;20247;-84
2021/10/15 02:46:37;;;;;;;9.40;4.77;;;11.40;97.30;;;;;;5053566;28;20916;-85
2021/10/15 02:49:03;;;;;;;6.37;4.30;;;11.40;97.30;;;;;;5062119;28;20471;-84
2021/10/15 02:51:29;;;;;;;9.57;4.60;;;11.40;97.30;;;;;;5073905;28;20424;-85
2021/10/15 02:53:54;;;;;;;9.20;3.90;;;11.40;97.30;;;;;;5073300;28;20804;-84
2021/10/15 02:56:20;;;;;;;6.27;4.40;;;11.40;97.30;;;;;;5072581;28;20186;-84
2021/10/15 02:58:46;;;;;;;7.40;4.30;;;11.40;97.30;;;;;;5073768;28;20212;-84
2021/10/15 03:01:11;;;;;;;8.80;4.60;;;11.40;97.30;;;;;;5073584;28;20457;-83
2021/10/15 03:03:37;;;;;;;7.20;3.73;;;11.40;97.30;;;;;;5072856;28;20239;-85
2021/10/15 03:06:03;;;;;;;7.60;4.53;;;11.40;97.30;;;;;;5073185;28;20178;-84
2021/10/15 03:08:28;;;;;;;6.93;3.97;;;11.40;97.30;;;;;;5074523;28;20178;-83
2021/10/15 03:10:55;;;;;;;9.80;3.97;;;11.50;97.30;;;;;;5073028;28;20182;-83
2021/10/15 03:13:20;;;;;;;9.50;5.20;;;11.50;97.30;;;;;;5072688;28;20268;-83
2021/10/15 03:15:46;;;;;;;6.67;3.87;;;11.50;97.30;;;;;;5072841;28;20887;-84
2021/10/15 03:18:12;;;;;;;7.57;4.10;;;11.50;97.30;;;;;;5072907;28;20505;-84
2021/10/15 03:20:38;;;;;;;5.70;4.00;;;11.50;97.30;;;;;;5073358;28;20492;-85
2021/10/15 03:23:04;;;;;;;7.70;3.80;;;11.50;97.30;;;;;;5072023;28;20413;-84
2021/10/15 03:25:31;;;;;;;12.93;4.30;;;11.50;97.30;;;;;;5072170;28;20195;-85
2021/10/15 03:27:56;;;;;;;6.67;4.30;;;11.50;97.30;;;;;;5071740;28;20418;-84
2021/10/15 03:30:22;;;;;;;5.43;3.47;;;11.50;97.30;;;;;;5071652;28;20448;-84
2021/10/15 03:32:48;;;;;;;7.13;4.20;;;11.50;97.30;;;;;;5072173;28;20235;-85
2021/10/15 03:35:13;;;;;;;8.17;4.43;;;11.60;97.30;;;;;;5072321;28;20475;-85
2021/10/15 03:37:39;;;;;;;4.40;3.47;;;11.60;97.30;;;;;;5073395;28;20186;-84
2021/10/15 03:40:06;;;;;;;6.83;3.67;;;11.60;97.30;;;;;;5072452;28;20564;-85
2021/10/15 03:42:31;;;;;;;8.33;3.77;;;11.60;97.30;;;;;;5072380;28;20202;-84
2021/10/15 03:44:57;;;;;;;5.40;3.73;;;11.60;97.30;;;;;;5071581;28;21005;-85
2021/10/15 03:47:22;;;;;;;4.77;3.40;;;11.60;97.30;;;;;;5071038;28;20182;-85
2021/10/15 03:49:48;;;;;;;9.73;3.73;;;11.70;97.30;;;;;;5056362;28;20255;-85
2021/10/15 03:52:14;;;;;;;4.70;3.50;;;11.70;97.30;;;;;;5051813;28;20186;-84
2021/10/15 03:54:40;;;;;;;6.43;3.80;;;11.70;97.30;;;;;;5051404;28;20458;-84
2021/10/15 03:57:06;;;;;;;7.57;3.17;;;11.70;97.30;;;;;;5052076;28;20178;-84
2021/10/15 03:59:31;;;;;;;5.07;3.50;;;11.70;97.30;;;;;;5054489;28;20202;-85
2021/10/15 04:01:57;;;;;;;6.50;3.83;;;11.70;97.30;;;;;;5053211;28;20214;-84
2021/10/15 04:04:22;;;;;;;5.87;3.47;;;11.70;97.30;;;;;;5061116;28;20225;-84
2021/10/15 04:06:48;;;;;;;7.80;4.50;;;11.70;97.30;;;;;;5072920;28;20179;-84
2021/10/15 04:09:13;;;;;;;5.43;3.90;;;11.70;97.30;;;;;;5059314;28;20188;-84
2021/10/15 04:11:39;;;;;;;6.43;3.40;;;11.70;97.30;;;;;;5052142;28;20176;-85
2021/10/15 04:14:05;;;;;;;5.60;3.47;;;11.80;97.30;;;;;;5052412;28;20421;-83
2021/10/15 04:16:32;;;;;;;5.70;3.47;;;11.80;97.30;;;;;;5053558;28;20171;-85
2021/10/15 04:18:58;;;;;;;9.83;3.97;;;11.80;97.30;;;;;;5052461;28;20774;-83
2021/10/15 04:21:24;;;;;;;6.00;3.80;;;11.80;97.30;;;;;;5052553;28;20465;-84
2021/10/15 04:23:49;;;;;;;6.53;3.47;;;11.70;97.30;;;;;;5052091;28;20198;-84
2021/10/15 04:26:15;;;;;;;7.63;4.40;;;11.80;97.30;;;;;;5051769;28;20674;-84
2021/10/15 04:28:40;;;;;;;4.83;3.23;;;11.70;97.30;;;;;;5052211;28;20178;-84
2021/10/15 04:31:06;;;;;;;6.70;3.97;;;11.70;97.30;;;;;;5052217;28;20263;-85
2021/10/15 04:33:32;;;;;;;5.07;4.03;;;11.80;97.30;;;;;;5052137;28;20180;-85
2021/10/15 04:35:57;;;;;;;7.90;4.07;;;11.70;97.30;;;;;;5052105;28;20179;-86
2021/10/15 04:38:23;;;;;;;7.80;4.23;;;11.70;97.30;;;;;;5051593;28;20179;-85
2021/10/15 04:40:48;;;;;;;6.50;4.20;;;11.80;97.30;;;;;;5051270;28;20179;-84
2021/10/15 04:43:14;;;;;;;6.70;4.10;;;11.80;97.30;;;;;;5054230;28;20182;-86
2021/10/15 04:45:39;;;;;;;7.60;3.90;;;11.80;97.30;;;;;;5054686;28;20211;-85
2021/10/15 04:48:05;;;;;;;8.67;4.10;;;11.80;97.30;;;;;;5056116;28;20176;-85
2021/10/15 04:50:36;;;;;;;7.50;3.90;;;11.70;97.30;;;;;;5076642;28;20201;-85
2021/10/15 04:53:03;;;;;;;7.13;3.93;;;11.70;97.30;;;;;;5076581;28;20207;-84
2021/10/15 04:55:28;;;;;;;6.40;3.70;;;11.70;97.30;;;;;;5075461;28;20449;-84
2021/10/15 04:57:57;;;;;;;9.07;4.27;;;11.70;97.30;;;;;;5075061;28;20952;-84
2021/10/15 05:00:24;;;;;;;7.33;3.70;;;11.70;97.30;;;;;;5074991;28;20636;-86
2021/10/15 05:02:51;;;;;;;7.50;3.90;;;11.70;97.30;;;;;;5075884;28;20473;-85
2021/10/15 05:05:24;;;;;;;5.60;3.90;;;11.70;97.30;;;;;;5060393;28;20430;-84
2021/10/15 05:07:50;;;;;;;10.30;5.73;;;11.70;97.30;;;;;;5054953;28;20802;-84
2021/10/15 05:10:16;;;;;;;5.33;3.90;;;11.70;97.30;;;;;;5055454;28;20403;-84
2021/10/15 05:12:42;;;;;;;7.80;4.77;;;11.70;97.30;;;;;;5054822;28;20425;-84
2021/10/15 05:15:12;;;;;;;8.80;4.50;;;11.70;97.30;;;;;;5055424;28;20438;-84
2021/10/15 05:17:38;;;;;;;6.40;4.10;;;11.70;97.30;;;;;;5055209;28;20301;-86
2021/10/15 05:20:06;;;;;;;6.50;4.13;;;11.80;97.30;;;;;;5053759;28;20418;-85
2021/10/15 05:22:32;;;;;;;5.87;4.00;;;11.80;97.30;;;;;;5054409;28;20460;-84
2021/10/15 05:24:58;;;;;;;9.10;5.27;;;11.80;97.30;;;;;;5056654;28;20865;-85
2021/10/15 05:27:23;;;;;;;7.00;4.30;;;11.80;97.30;;;;;;5055250;28;20460;-85
2021/10/15 05:29:49;;;;;;;8.27;5.03;;;11.80;97.30;;;;;;5055640;28;20175;-85
2021/10/15 05:32:16;;;;;;;9.13;4.03;;;11.80;97.30;;;;;;5066604;28;20222;-85
2021/10/15 05:34:43;;;;;;;9.50;4.90;;;11.80;97.30;;;;;;5074104;28;20191;-84
2021/10/15 05:37:08;;;;;;;9.17;5.03;;;11.80;97.30;;;;;;5074453;28;20445;-85
2021/10/15 05:39:34;;;;;;;6.80;4.43;;;11.80;97.30;;;;;;5074566;28;20424;-85
2021/10/15 05:42:00;;;;;;;9.67;4.87;;;11.80;97.30;;;;;;5038124;28;20265;-84
2021/10/15 05:44:26;;;;;;;9.37;5.40;;;11.80;97.30;;;;;;5036248;28;20200;-83
2021/10/15 05:46:51;;;;;;;8.43;4.50;;;11.70;97.30;;;;;;5033811;28;20514;-85
2021/10/15 05:49:17;;;;;;;7.33;3.60;;;11.70;97.30;;;;;;5054682;28;20175;-84
2021/10/15 05:51:47;;;;;;;7.33;4.53;;;11.70;97.30;;;;;;5074117;28;20187;-85
2021/10/15 05:54:18;;;;;;;5.73;4.57;;;11.70;97.30;;;;;;5074364;28;20441;-85
2021/10/15 05:57:05;;;;;;;5.33;3.97;;;11.70;97.30;;;;;;5075006;28;20424;-85
2021/10/15 05:59:30;;;;;;;6.70;4.50;;;11.80;97.30;;;;;;5055284;28;20422;-84
2021/10/15 06:02:04;;;;;;;11.10;5.13;;;11.80;97.30;;;;;;5054295;28;20459;-84
2021/10/15 06:15:28;;;;;;;10.70;6.27;;;11.80;97.30;;;;;;5062046;28;20437;-85
2021/10/15 06:17:56;;;;;;;8.13;4.80;;;11.80;97.30;;;;;;5058321;28;20410;-86
2021/10/15 06:20:21;;;;;;;8.07;5.03;;;11.80;97.30;;;;;;5067196;28;20440;-87
2021/10/15 06:22:47;;;;;;;10.00;5.20;;;11.80;97.30;;;;;;5049170;28;20449;-86
2021/10/15 06:25:13;;;;;;;9.23;5.43;;;11.80;97.30;;;;;;5054163;28;20198;-86
2021/10/15 06:27:38;;;;;;;12.40;5.43;;;11.90;97.30;;;;;;5053714;28;20176;-86
2021/10/15 06:30:05;;;;;;;8.23;4.80;;;11.90;97.30;;;;;;5054851;28;20176;-87
2021/10/15 06:32:30;;;;;;;8.90;5.40;;;11.90;97.30;;;;;;5053576;28;20276;-87
2021/10/15 06:34:56;;;;;;;9.80;5.30;;;11.90;97.30;;;;;;5053480;28;20866;-87
2021/10/15 06:37:22;;;;;;;6.47;4.47;;;11.90;97.30;;;;;;5053585;28;20176;-89
2021/10/15 06:39:48;;;;;;;11.17;5.77;;;12.00;97.30;;;;;;5053098;28;20537;-86
2021/10/15 06:42:13;;;;;;;12.03;6.73;;;12.00;97.30;;;;;;5053889;28;20575;-85
2021/10/15 06:44:39;;;;;;;8.23;5.30;;;12.10;97.30;;;;;;5053535;28;20203;-88
2021/10/15 06:47:05;;;;;;;7.53;4.80;;;12.10;97.30;;;;;;5053946;28;20274;-87
2021/10/15 06:49:31;;;;;;;15.43;5.40;;;12.20;97.30;;;;;;5053284;28;20172;-86
2021/10/15 06:51:57;;;;;;;9.93;5.50;;;12.20;97.30;;;;;;5053182;28;20480;-86
2021/10/15 06:54:22;;;;;;;11.00;5.10;;;12.20;97.30;;;;;;5053686;28;20580;-88
2021/10/15 06:56:48;;;;;;;11.60;5.50;;;12.20;97.30;;;;;;5053178;28;20229;-86
2021/10/15 06:59:13;;;;;;;7.90;4.60;;;12.20;97.30;;;;;;5054826;28;20172;-88
2021/10/15 07:01:39;;;;;;;10.23;4.80;;;12.20;97.30;;;;;;5055065;28;20207;-89
2021/10/15 07:04:05;;;;;;;7.90;5.40;;;12.20;97.30;;;;;;5054001;28;20237;-87
2021/10/15 07:06:30;;;;;;;9.00;4.80;;;12.20;97.30;;;;;;5053901;28;20179;-86
2021/10/15 07:08:57;;;;;;;8.90;4.53;;;12.20;97.30;;;;;;5055831;28;20273;-90
2021/10/15 07:11:22;;;;;;;8.30;5.03;;;12.20;97.30;;;;;;5053981;28;20184;-89
2021/10/15 07:13:48;;;;;;;10.07;5.07;;;12.20;97.30;;;;;;5054606;28;20434;-90
2021/10/15 07:16:13;;;;;;;6.50;4.50;;;12.20;97.30;;;;;;5054377;28;20226;-87
2021/10/15 07:18:40;;;;;;;9.03;5.00;;;12.20;97.30;;;;;;5054184;28;20179;-88
2021/10/15 07:21:07;;;;;;;10.70;5.10;;;12.20;97.30;;;;;;5053297;28;20283;-88
2021/10/15 07:23:33;;;;;;;10.60;5.50;;;12.20;97.30;;;;;;5053805;28;20419;-87
2021/10/15 07:26:00;;;;;;;7.27;4.43;;;12.20;97.30;;;;;;5054008;28;20455;-88
2021/10/15 07:28:27;;;;;;;8.43;4.60;;;12.20;97.30;;;;;;5055184;28;20782;-89
2021/10/15 07:30:53;;;;;;;10.23;4.70;;;12.20;97.30;;;;;;5053792;28;20406;-89
2021/10/15 07:33:19;;;;;;;10.60;5.60;;;12.20;97.30;;;;;;5054781;28;20969;-90
2021/10/15 07:35:44;;;;;;;8.87;5.17;;;12.30;97.30;;;;;;5054042;28;20422;-90
2021/10/15 07:38:10;;;;;;;10.37;4.40;;;12.20;97.30;;;;;;5053424;28;20172;-90
2021/10/15 07:40:36;;;;;;;9.40;4.23;;;12.20;97.30;;;;;;5053665;28;20172;-88
2021/10/15 07:43:01;;;;;;;9.80;5.10;;;12.30;97.30;;;;;;5053280;28;20295;-88
2021/10/15 07:45:28;;;;;;;7.23;4.70;;;12.30;97.30;;;;;;5052991;28;20204;-88
2021/10/15 07:47:54;;;;;;;7.00;4.87;;;12.50;97.30;;;;;;5053484;28;20200;-89
2021/10/15 07:50:21;;;;;;;11.80;5.23;;;12.60;97.30;;;;;;5053300;28;20415;-91
2021/10/15 07:52:46;;;;;;;12.17;4.40;;;12.70;97.30;;;;;;5053450;28;20422;-89
2021/10/15 07:55:12;;;;;;;5.70;3.83;;;12.80;97.30;;;;;;5053219;28;20422;-88
2021/10/15 07:57:38;;;;;;;10.00;4.20;;;12.90;97.30;;;;;;5053705;28;20804;-88
2021/10/15 08:00:06;;;;;;;10.70;4.73;;;13.00;97.30;;;;;;5053335;28;20176;-88
2021/10/15 08:02:31;;;;;;;7.37;4.67;;;13.00;97.30;;;;;;5053049;28;20242;-88
2021/10/15 08:04:57;;;;;;;14.40;5.07;;;13.10;97.30;;;;;;5052703;28;20466;-87
2021/10/15 08:07:23;;;;;;;8.83;4.60;;;13.20;97.30;;;;;;5053818;28;20175;-86
2021/10/15 08:09:48;;;;;;;10.07;4.63;;;13.30;97.30;;;;;;5052838;28;20267;-86
2021/10/15 08:12:14;;;;;;;7.67;3.73;;;13.40;97.30;;;;;;5053356;28;20207;-87
2021/10/15 08:14:40;;;;;;;9.40;4.37;;;13.50;97.30;;;;;;5052680;28;20196;-86
2021/10/15 08:17:05;;;;;;;14.10;4.17;;;13.60;97.30;;;;;;5052181;28;20183;-87
2021/10/15 08:19:31;;;;;;;7.93;4.50;;;13.50;97.30;;;;;;5054144;28;20239;-84
2021/10/15 08:21:57;;;;;;;5.93;3.53;;;13.50;97.30;;;;;;5053117;28;20352;-85
2021/10/15 08:24:24;;;;;;;5.00;3.47;;;13.50;97.30;;;;;;5053107;28;20241;-87
2021/10/15 08:26:50;;;;;;;6.00;3.50;;;13.60;97.30;;;;;;5052718;28;20178;-87
2021/10/15 08:29:16;;;;;;;6.60;3.63;;;13.70;97.30;;;;;;5053531;28;20406;-89
2021/10/15 08:31:42;;;;;;;6.50;3.63;;;13.80;97.30;;;;;;5052574;28;20414;-87
2021/10/15 08:34:09;;;;;;;12.27;3.83;;;13.90;97.30;;;;;;5052754;28;20448;-85
2021/10/15 08:36:35;;;;;;;4.90;3.33;;;14.10;97.30;;;;;;5052039;28;20253;-84
2021/10/15 08:39:00;;;;;;;5.63;3.43;;;14.10;97.30;;;;;;5052275;28;20912;-85
2021/10/15 08:41:26;;;;;;;7.90;3.20;;;14.10;97.30;;;;;;5051926;28;20235;-85
2021/10/15 08:43:53;;;;;;;4.20;2.20;;;14.00;97.30;;;;;;5051719;28;20198;-86
2021/10/15 08:46:21;;;;;;;4.80;3.00;;;13.90;97.30;;;;;;5052362;28;20172;-86
2021/10/15 08:48:47;;;;;;;6.20;2.70;;;13.80;97.30;;;;;;5057728;28;20782;-87
2021/10/15 08:51:15;;;;;;;4.40;2.90;;;13.80;97.30;;;;;;5072110;28;20421;-86
2021/10/15 08:53:46;;;;;;;8.30;2.90;;;13.90;97.30;;;;;;5071871;28;20252;-86
2021/10/15 08:56:12;;;;;;;5.43;2.57;;;13.90;97.30;;;;;;5072318;28;20902;-86
2021/10/15 08:58:45;;;;;;;3.00;2.60;;;13.90;97.30;;;;;;5072075;28;20455;-86
2021/10/15 09:01:11;;;;;;;4.90;4.40;;;13.90;97.30;;;;;;5071949;28;20555;-85
2021/10/15 09:03:37;;;;;;;7.00;3.47;;;13.90;97.30;;;;;;5071392;28;20498;-85
2021/10/15 09:06:06;;;;;;;4.23;2.63;;;13.90;97.30;;;;;;5072143;28;20449;-85
2021/10/15 09:08:55;;;;;;;5.90;3.20;;;13.90;97.30;;;;;;5072464;28;21004;-88
2021/10/15 09:11:28;;;;;;;6.43;3.07;;;13.80;97.30;;;;;;5072256;28;20414;-84
2021/10/15 09:14:08;;;;;;;4.53;2.60;;;13.80;97.30;;;;;;5072119;28;20858;-85
2021/10/15 09:17:05;;;;;;;5.57;2.87;;;13.80;97.30;;;;;;5072538;28;20421;-85
2021/10/15 09:19:32;;;;;;;4.80;2.50;;;13.80;97.30;;;;;;5064357;28;20437;-87
2021/10/15 09:22:25;;;;;;;2.90;2.70;;;13.80;97.30;;;;;;5073138;28;20464;-86
2021/10/15 09:25:05;;;;;;;7.17;2.37;;;13.90;97.30;;;;;;5071832;28;20442;-85
2021/10/15 09:27:36;;;;;;;6.80;3.47;;;13.90;97.30;;;;;;5072233;28;20947;-82
2021/10/15 09:30:11;;;;;;;5.37;3.13;;;13.90;97.30;;;;;;5075723;28;20406;-83
2021/10/15 09:32:41;;;;;;;4.27;2.33;;;13.80;97.30;;;;;;5076321;28;20428;-87
2021/10/15 09:35:09;;;;;;;4.00;2.90;;;13.70;97.30;;;;;;5075799;28;20437;-85
2021/10/15 09:37:38;;;;;;;7.13;3.50;;;13.80;97.30;;;;;;5075013;28;20835;-84
2021/10/15 09:40:13;;;;;;;3.70;2.20;;;13.80;97.30;;;;;;5076513;28;20930;-85
2021/10/15 09:42:40;;;;;;;7.47;3.13;;;13.90;97.30;;;;;;5075035;28;20452;-88
2021/10/15 09:45:16;;;;;;;6.20;3.60;;;14.00;97.30;;;;;;5074926;28;20494;-84
2021/10/15 09:47:54;;;;;;;7.37;3.00;;;14.00;97.30;;;;;;5075027;28;20487;-85
2021/10/15 09:50:22;;;;;;;6.90;3.07;;;14.10;97.30;;;;;;5075329;28;20940;-87
2021/10/15 09:52:55;;;;;;;4.43;2.70;;;14.00;97.30;;;;;;5075053;28;20425;-86
2021/10/15 09:55:31;;;;;;;5.20;2.87;;;13.90;97.30;;;;;;5074864;28;20438;-85
2021/10/15 09:58:09;;;;;;;5.00;2.03;;;13.90;97.30;;;;;;5074889;28;20914;-85
2021/10/15 10:00:35;;;;;;;7.47;2.77;;;13.90;97.30;;;;;;5075141;28;20420;-85
2021/10/15 10:03:01;;;;;;;3.63;2.50;;;13.90;97.30;;;;;;5066515;28;20463;-86
2021/10/15 10:05:27;;;;;;;7.10;2.77;;;13.80;97.30;;;;;;5046644;28;20740;-83
2021/10/15 10:07:55;;;;;;;12.23;2.97;;;13.90;97.30;;;;;;5054851;28;20225;-84
2021/10/15 10:10:26;;;;;;;5.63;2.87;;;13.90;97.30;;;;;;5054175;28;20403;-86
2021/10/15 10:12:53;;;;;;;5.33;2.83;;;13.90;97.30;;;;;;5056407;28;20430;-87
2021/10/15 10:15:21;;;;;;;5.97;3.17;;;13.90;97.30;;;;;;5054413;28;20512;-83
2021/10/15 10:18:10;;;;;;;4.07;3.00;;;13.80;97.30;;;;;;5054030;28;20402;-83
2021/10/15 10:20:39;;;;;;;5.97;3.40;;;13.80;97.30;;;;;;5054621;28;20993;-84
2021/10/15 10:23:11;;;;;;;5.23;2.73;;;13.80;97.30;;;;;;5054408;28;20454;-84
2021/10/15 10:25:37;;;;;;;5.87;2.90;;;13.90;97.30;;;;;;5054279;28;20579;-83
2021/10/15 10:28:16;;;;;;;4.00;2.70;;;14.00;97.30;;;;;;5055469;28;20410;-84
2021/10/15 10:30:44;;;;;;;3.30;2.30;;;14.00;97.30;;;;;;5054567;28;20406;-84
2021/10/15 10:33:10;;;;;;;3.77;2.60;;;14.00;97.30;;;;;;5053750;28;20426;-86
2021/10/15 10:35:36;;;;;;;4.77;2.70;;;14.10;97.30;;;;;;5054153;28;20472;-85
2021/10/15 10:38:20;;;;;;;5.30;2.73;;;14.20;97.30;;;;;;5054362;28;20550;-84
2021/10/15 10:41:01;;;;;;;6.90;2.70;;;14.30;97.30;;;;;;5053836;28;20434;-83
2021/10/15 10:43:35;;;;;;;5.30;2.30;;;14.50;97.30;;;;;;5054048;28;20959;-85
2021/10/15 10:46:25;;;;;;;3.60;2.30;;;14.50;96.90;;;;;;5068075;28;20409;-85
2021/10/15 10:48:50;;;;;;;5.37;2.70;;;14.60;96.90;;;;;;5073793;28;20398;-86
2021/10/15 10:51:18;;;;;;;4.57;2.50;;;14.60;95.90;;;;;;5073534;28;20413;-84
2021/10/15 10:53:59;;;;;;;5.60;2.87;;;14.70;96.20;;;;;;5073878;28;20283;-85
2021/10/15 10:56:39;;;;;;;6.07;3.00;;;14.70;96.10;;;;;;5074225;28;20405;-85
2021/10/15 10:59:26;;;;;;;3.80;2.33;;;14.70;95.60;;;;;;5073690;28;20748;-84
2021/10/15 11:01:55;;;;;;;4.67;2.87;;;14.70;95.90;;;;;;5073197;28;20453;-84
2021/10/15 11:04:31;;;;;;;5.13;2.97;;;14.80;95.70;;;;;;5073796;28;20448;-84
2021/10/15 11:07:16;;;;;;;6.83;2.70;;;14.80;95.40;;;;;;5073093;28;20417;-85
2021/10/15 11:09:43;;;;;;;6.27;2.97;;;14.60;95.80;;;;;;5062598;28;20425;-84
2021/10/15 11:12:14;;;;;;;7.93;2.50;;;14.50;96.30;;;;;;5067458;28;20461;-85
2021/10/15 11:14:53;;;;;;;4.53;2.60;;;14.40;96.40;;;;;;5059083;28;20461;-85
2021/10/15 11:17:27;;;;;;;4.07;2.50;;;14.50;96.80;;;;;;5065112;28;20959;-87
2021/10/15 11:20:12;;;;;;;5.90;2.57;;;14.50;96.90;;;;;;5060266;28;20414;-85
2021/10/15 11:22:40;;;;;;;5.80;2.90;;;14.40;96.90;;;;;;5073095;28;20459;-84
2021/10/15 11:25:07;;;;;;;3.70;2.53;;;14.40;97.30;;;;;;5073442;28;20989;-82
2021/10/15 11:27:33;;;;;;;2.90;2.20;;;14.30;97.30;;;;;;5068814;28;20926;-84
2021/10/15 11:30:00;;;;;;;3.63;3.00;;;14.20;97.30;;;;;;5052639;28;20418;-83
2021/10/15 11:32:45;;;;;;;4.67;2.73;;;14.10;97.30;;;;;;5052454;28;20665;-82
2021/10/15 11:35:18;;;;;;;5.00;3.13;;;14.00;97.30;;;;;;5053093;28;20445;-83
2021/10/15 11:38:07;;;;;;;4.47;2.90;;;13.90;97.30;;;;;;5052543;28;20490;-82
2021/10/15 11:40:34;;;;;;;4.67;3.07;;;13.80;97.30;;;;;;5053413;28;20418;-82
2021/10/15 11:43:10;;;;;;;7.67;2.80;;;13.70;97.30;;;;;;5053793;28;20454;-84
2021/10/15 11:45:42;;;;;;;5.43;3.23;;;13.70;97.30;;;;;;5053446;28;20434;-82
2021/10/15 11:48:10;;;;;;;6.80;3.37;;;13.60;97.30;;;;;;5054128;28;20929;-83
2021/10/15 11:50:40;;;;;;;5.53;2.93;;;13.50;97.30;;;;;;5052828;28;20406;-81
2021/10/15 11:53:07;;;;;;;6.93;3.50;;;13.50;97.30;;;;;;5052923;28;20453;-83
2021/10/15 11:55:35;;;;;;;6.30;3.03;;;13.50;97.30;;;;;;5053373;28;20442;-83
2021/10/15 11:58:25;;;;;;;4.60;3.47;;;13.50;97.30;;;;;;5053474;28;20411;-80
2021/10/15 12:00:54;;;;;;;5.70;3.30;;;13.40;97.30;;;;;;5052895;28;20947;-83
2021/10/15 12:03:31;;;;;;;3.97;2.93;;;13.30;97.30;;;;;;5052925;28;20466;-84
2021/10/15 12:06:10;;;;;;;5.30;3.23;;;13.20;97.30;;;;;;5053057;28;20422;-85
2021/10/15 12:08:36;;;;;;;6.83;3.80;;;13.20;97.30;;;;;;5052207;28;20463;-86
2021/10/15 12:11:02;;;;;;;6.97;4.00;;;13.20;97.30;;;;;;5052551;28;20417;-88
2021/10/15 12:13:28;;;;;;;6.13;3.40;;;13.20;97.30;;;;;;5052490;28;20423;-87
2021/10/15 12:15:54;;;;;;;6.50;3.40;;;13.20;97.30;;;;;;5057860;28;20418;-84
2021/10/15 12:18:27;;;;;;;7.67;3.80;;;13.30;97.30;;;;;;5065007;28;20202;-85
2021/10/15 12:20:53;;;;;;;6.73;4.03;;;13.30;97.30;;;;;;5062190;28;20214;-87
2021/10/15 12:23:18;;;;;;;6.47;3.60;;;13.20;97.30;;;;;;5070960;28;20432;-89
2021/10/15 12:25:44;;;;;;;8.27;4.20;;;13.20;97.30;;;;;;5073063;28;20224;-87
2021/10/15 12:28:11;;;;;;;5.53;3.60;;;13.20;97.30;;;;;;5073117;28;20193;-87
2021/10/15 12:30:37;;;;;;;8.50;5.10;;;13.20;97.30;;;;;;5073172;28;20659;-89
2021/10/15 12:33:08;;;;;;;9.73;4.30;;;13.10;97.30;;;;;;5073420;28;20417;-86
2021/10/15 12:35:34;;;;;;;8.80;5.40;;;13.10;97.30;;;;;;5073263;28;20610;-84
2021/10/15 12:38:00;;;;;;;10.70;4.27;;;13.10;97.30;;;;;;5072952;28;20429;-86
2021/10/15 12:40:32;;;;;;;8.33;4.57;;;13.00;97.30;;;;;;5072499;28;20220;-86
2021/10/15 12:43:07;;;;;;;9.70;4.90;;;13.00;97.30;;;;;;5072794;28;20680;-88
2021/10/15 12:45:56;;;;;;;8.23;4.07;;;13.00;97.30;;;;;;5073206;28;20437;-87
2021/10/15 12:48:30;;;;;;;4.83;3.53;;;12.90;97.30;;;;;;5071789;28;20412;-89
2021/10/15 12:51:09;;;;;;;11.10;3.60;;;13.00;97.30;;;;;;5072529;28;20470;-88
2021/10/15 12:53:44;;;;;;;10.87;4.90;;;13.00;97.30;;;;;;5071075;28;20409;-89
2021/10/15 12:56:23;;;;;;;7.47;4.07;;;13.00;97.30;;;;;;5071682;28;20452;-88
2021/10/15 12:58:52;;;;;;;5.03;2.70;;;13.00;97.30;;;;;;5071679;28;20413;-87
2021/10/15 13:01:23;;;;;;;1.70;1.60;;;12.70;97.30;;;;;;5071627;28;20539;-88